Time;durP1;ratioP1;P1;durP2;ratioP2;P2;SDS_P1;SDS_P2;PMS_P1;PMS_P2;Temp;Humidity;BMP_temperature;BMP_pressure;BME280_temperature;BME280_humidity;BME280_pressure;Samples;Min_cycle;Max_cycle;Signal;HPM_P1;HPM_P2
2021/10/09 00:01:48;;;;;;;50.47;27.83;;;;;;;8.03;69.73;94724.72;4988951;28;20235;-70
2021/10/09 00:04:19;;;;;;;50.67;27.80;;;7.60;99.90;;;8.12;69.24;94725.19;5011248;28;20228;-69
2021/10/09 00:06:45;;;;;;;51.60;28.77;;;7.40;99.90;;;8.22;69.73;94715.69;5019442;28;20326;-69
2021/10/09 00:09:10;;;;;;;50.90;29.03;;;7.20;99.90;;;8.33;70.07;94721.22;5043830;28;20221;-68
2021/10/09 00:11:37;;;;;;;48.37;28.93;;;7.60;99.90;;;8.37;69.80;94719.69;5010327;28;20216;-68
2021/10/09 00:14:12;;;;;;;48.67;27.47;;;7.10;99.90;;;8.39;69.83;94726.38;5029764;28;20213;-68
2021/10/09 00:16:44;;;;;;;43.60;26.07;;;7.40;99.90;;;8.31;70.21;94723.28;5010557;28;20210;-70
2021/10/09 00:19:15;;;;;;;41.43;25.77;;;6.90;99.90;;;8.24;70.22;94736.56;5027461;28;20692;-69
2021/10/09 00:21:45;;;;;;;38.43;22.50;;;7.40;99.90;;;8.31;70.46;94725.91;4995117;28;20219;-68
2021/10/09 00:24:19;;;;;;;34.83;22.87;;;6.60;99.90;;;8.36;69.71;94728.69;4993528;28;20212;-69
2021/10/09 00:26:46;;;;;;;33.73;22.47;;;6.60;99.90;;;8.36;70.30;94729.47;5010397;28;20212;-69
2021/10/09 00:29:13;;;;;;;30.40;21.03;;;6.30;99.90;;;8.35;70.43;94727.06;5014712;28;20220;-70
2021/10/09 00:31:44;;;;;;;32.70;22.17;;;7.50;99.90;;;8.38;70.60;94724.75;5042172;28;20220;-69
2021/10/09 00:34:12;;;;;;;39.40;23.40;;;7.60;99.90;;;8.44;70.63;94728.31;5013504;28;20214;-68
2021/10/09 00:36:38;;;;;;;32.80;22.27;;;8.20;99.90;;;8.45;70.20;94722.00;5031626;28;20736;-69
2021/10/09 00:39:04;;;;;;;36.73;23.10;;;7.90;99.90;;;8.40;70.64;94730.59;5025314;28;20249;-68
2021/10/09 00:41:30;;;;;;;39.73;24.30;;;;;;;8.38;70.32;94729.25;5010451;28;20283;-68
2021/10/09 00:44:11;;;;;;;36.57;23.53;;;7.70;99.90;;;8.38;70.34;94737.97;5019434;28;20229;-69
2021/10/09 00:46:43;;;;;;;37.93;24.87;;;8.10;99.90;;;8.37;70.80;94735.53;5024427;28;20232;-70
2021/10/09 00:49:18;;;;;;;38.67;24.80;;;7.40;99.90;;;8.32;70.39;94727.53;5022197;28;20209;-67
2021/10/09 00:51:49;;;;;;;38.73;24.53;;;7.80;99.90;;;8.29;70.42;94735.91;5025437;28;20213;-68
2021/10/09 00:54:19;;;;;;;42.13;25.93;;;7.80;99.90;;;8.22;70.56;94733.34;5029516;28;20577;-68
2021/10/09 00:56:46;;;;;;;37.67;23.60;;;7.00;99.90;;;8.21;70.53;94732.53;5028795;28;20257;-67
2021/10/09 00:59:13;;;;;;;35.87;24.57;;;8.30;99.90;;;8.16;70.63;94732.41;5010834;28;20221;-68
2021/10/09 01:01:45;;;;;;;34.97;23.97;;;7.40;99.90;;;8.23;70.42;94730.47;5002942;28;20214;-68
2021/10/09 01:04:11;;;;;;;37.73;23.70;;;7.20;99.90;;;8.23;71.08;94714.63;5030271;28;20213;-68
2021/10/09 01:06:40;;;;;;;34.43;22.67;;;7.20;99.90;;;8.14;71.20;94718.66;5026766;28;20615;-69
2021/10/09 01:09:08;;;;;;;35.97;22.47;;;6.40;99.90;;;8.16;70.89;94719.22;4996635;28;20217;-70
2021/10/09 01:11:38;;;;;;;35.30;22.70;;;6.20;99.90;;;8.20;70.83;94716.91;5005434;28;20299;-71
2021/10/09 01:14:05;;;;;;;39.20;24.30;;;7.30;99.90;;;8.33;70.58;94723.84;5013612;28;20212;-71
2021/10/09 01:16:33;;;;;;;38.30;24.60;;;7.70;99.90;;;8.43;71.13;94722.22;5019114;28;20687;-71
2021/10/09 01:18:59;;;;;;;37.17;23.77;;;8.20;99.90;;;8.62;71.07;94728.19;5009807;28;20224;-71
2021/10/09 01:21:26;;;;;;;36.17;22.80;;;7.50;99.90;;;8.67;71.00;94723.00;5012533;28;20688;-71
2021/10/09 01:23:53;;;;;;;39.50;24.13;;;8.00;99.90;;;8.72;71.10;94731.06;5008154;28;20289;-70
2021/10/09 01:26:19;;;;;;;34.83;23.90;;;;;;;8.80;71.20;94732.53;5015474;28;20291;-70
2021/10/09 01:28:53;;;;;;;32.13;22.03;;;8.30;99.90;;;9.03;71.95;94732.50;5025678;28;20269;-70
2021/10/09 01:31:23;;;;;;;33.90;22.63;;;8.30;99.90;;;9.02;71.59;94720.31;5014501;28;20585;-70
2021/10/09 01:33:51;;;;;;;35.00;22.73;;;;;;;9.09;71.58;94719.13;5024068;28;20222;-70
2021/10/09 01:36:17;;;;;;;33.03;22.40;;;7.80;99.90;;;9.08;71.59;94711.44;5012278;28;20213;-70
2021/10/09 01:38:49;;;;;;;34.80;23.90;;;8.00;99.90;;;9.13;71.48;94725.53;4992380;28;20224;-71
2021/10/09 01:41:15;;;;;;;35.97;24.67;;;8.00;99.90;;;9.10;71.80;94719.91;5037373;28;20695;-71
2021/10/09 01:43:44;;;;;;;39.97;26.23;;;;;;;9.17;71.88;94725.88;5013037;28;20212;-71
2021/10/09 01:46:11;;;;;;;45.40;27.60;;;8.80;99.90;;;9.24;71.58;94727.34;5002622;28;20282;-71
2021/10/09 01:48:41;;;;;;;43.37;27.37;;;8.60;99.90;;;9.30;72.08;94736.16;5010677;28;20217;-71
2021/10/09 01:51:09;;;;;;;44.30;27.83;;;8.30;99.90;;;9.35;71.49;94722.25;5005268;28;20224;-71
2021/10/09 01:53:40;;;;;;;41.87;27.70;;;8.20;99.90;;;9.39;72.14;94723.41;5013310;28;20247;-72
2021/10/09 01:56:07;;;;;;;43.90;26.77;;;8.50;99.90;;;9.50;71.84;94727.84;4997628;28;20359;-71
2021/10/09 01:58:37;;;;;;;39.27;26.67;;;8.80;99.90;;;9.57;72.19;94728.50;5013480;28;20227;-71
2021/10/09 02:01:04;;;;;;;41.50;26.87;;;8.30;99.90;;;9.60;71.97;94725.38;5006312;28;20227;-71
2021/10/09 02:03:32;;;;;;;42.93;27.40;;;8.50;99.90;;;9.65;72.55;94725.44;4994837;28;20223;-71
2021/10/09 02:05:58;;;;;;;41.17;26.63;;;8.70;99.90;;;9.68;72.21;94715.19;5009105;28;20231;-71
2021/10/09 02:08:24;;;;;;;35.93;24.63;;;;;;;9.79;72.41;94721.47;5043324;28;20221;-70
2021/10/09 02:13:30;;;;;;;36.50;24.77;;;9.00;99.90;;;9.86;71.97;94729.25;4992973;28;20345;-70
2021/10/09 02:26:28;;;;;;;34.57;23.43;;;8.20;99.90;;;9.89;72.65;94708.41;5021678;28;20255;-71
2021/10/09 02:28:54;;;;;;;32.30;23.20;;;8.70;99.90;;;9.86;72.54;94708.88;5041083;28;20320;-71
2021/10/09 02:31:19;;;;;;;33.60;22.90;;;9.70;99.90;;;9.93;72.27;94719.31;5007933;28;20300;-71
2021/10/09 02:33:48;;;;;;;30.33;22.50;;;8.90;99.90;;;9.97;72.86;94715.16;5007011;28;20215;-70
2021/10/09 02:36:14;;;;;;;31.97;21.83;;;9.10;99.90;;;9.93;72.57;94714.81;5033002;28;20227;-70
2021/10/09 02:38:43;;;;;;;31.60;22.17;;;8.90;99.90;;;9.93;72.84;94719.31;5024193;28;20640;-71
2021/10/09 02:41:08;;;;;;;32.47;22.97;;;9.10;99.90;;;9.92;72.33;94707.91;5029953;28;20222;-71
2021/10/09 02:43:34;;;;;;;32.47;22.97;;;8.70;99.90;;;9.84;72.74;94708.31;5009174;28;20250;-69
2021/10/09 02:46:01;;;;;;;32.23;23.23;;;;;;;9.87;72.74;94721.06;5019313;28;20224;-67
2021/10/09 02:48:26;;;;;;;30.30;22.67;;;9.00;99.90;;;9.88;72.80;94713.91;5039215;28;20252;-68
2021/10/09 02:50:52;;;;;;;34.13;23.27;;;9.00;99.90;;;9.88;72.72;94706.78;5008453;28;20253;-69
2021/10/09 02:53:18;;;;;;;32.43;23.13;;;9.20;99.90;;;9.97;73.12;94707.22;5023342;28;20274;-68
2021/10/09 02:55:44;;;;;;;33.53;21.63;;;8.90;99.90;;;9.94;72.99;94713.00;5011575;28;20748;-68
2021/10/09 02:58:10;;;;;;;32.73;22.80;;;;;;;9.97;72.71;94712.50;5008075;28;20304;-68
2021/10/09 03:00:36;;;;;;;35.20;24.00;;;8.60;99.90;;;9.93;72.65;94708.72;5015260;28;20224;-68
2021/10/09 03:03:02;;;;;;;34.93;23.47;;;8.40;99.90;;;9.95;73.00;94709.28;5023534;28;20217;-69
2021/10/09 03:05:28;;;;;;;33.53;24.40;;;8.40;99.90;;;9.94;73.01;94713.75;5023899;28;20226;-68
2021/10/09 03:07:54;;;;;;;34.63;23.03;;;8.20;99.90;;;9.98;72.90;94714.09;5040822;28;20313;-68
2021/10/09 03:10:20;;;;;;;33.20;22.10;;;9.00;99.90;;;10.00;72.71;94714.66;5010300;28;20284;-67
2021/10/09 03:12:46;;;;;;;32.53;21.93;;;9.10;99.90;;;10.06;73.02;94708.41;5007714;28;20546;-69
2021/10/09 03:15:17;;;;;;;30.73;22.63;;;8.80;99.90;;;10.07;73.07;94710.03;5026904;28;20232;-68
2021/10/09 03:17:43;;;;;;;35.17;23.40;;;9.30;99.90;;;10.08;73.20;94701.81;5009283;28;20216;-69
2021/10/09 03:20:11;;;;;;;30.93;22.23;;;9.40;99.90;;;10.15;73.25;94717.56;5000484;28;20236;-69
2021/10/09 03:22:40;;;;;;;31.87;23.13;;;8.70;99.90;;;10.09;72.90;94715.88;5041838;28;20244;-69
2021/10/09 03:25:07;;;;;;;33.77;23.60;;;8.70;99.90;;;10.05;73.17;94706.78;5011192;28;20291;-69
2021/10/09 03:27:34;;;;;;;32.97;22.30;;;8.60;99.90;;;10.01;72.85;94711.75;5024729;28;20248;-69
2021/10/09 03:30:03;;;;;;;33.23;23.50;;;9.40;99.90;;;10.01;73.43;94713.59;5009221;28;20213;-68
2021/10/09 03:32:29;;;;;;;31.90;22.33;;;9.00;99.90;;;10.00;73.22;94715.47;5016523;28;20352;-69
2021/10/09 03:34:56;;;;;;;31.57;22.77;;;9.00;99.90;;;10.05;73.27;94707.59;5011655;28;20212;-68
2021/10/09 03:37:22;;;;;;;32.77;22.77;;;8.90;99.90;;;10.03;73.24;94704.41;5024468;28;20661;-68
2021/10/09 03:39:50;;;;;;;30.93;22.17;;;8.80;99.90;;;10.03;73.21;94709.69;5027952;28;20272;-69
2021/10/09 03:42:32;;;;;;;32.03;22.53;;;9.10;99.90;;;10.03;73.42;94712.34;5041241;28;20642;-69
2021/10/09 03:45:04;;;;;;;32.53;22.53;;;8.90;99.90;;;10.04;73.28;94692.75;5007462;28;20225;-68
2021/10/09 03:47:49;;;;;;;31.53;23.00;;;8.90;99.90;;;10.02;73.33;94705.44;5008744;28;20310;-68
2021/10/09 03:52:47;;;;;;;31.60;22.33;;;9.10;99.90;;;9.96;73.14;94711.69;5025516;28;20213;-68
2021/10/09 03:55:16;;;;;;;34.63;23.80;;;8.80;99.90;;;9.95;73.61;94711.94;5008764;28;20575;-68
2021/10/09 03:57:43;;;;;;;34.70;23.20;;;9.00;99.90;;;9.91;73.51;94718.72;5011021;28;20274;-68
2021/10/09 04:00:12;;;;;;;31.70;22.70;;;8.20;99.90;;;9.94;73.39;94727.00;5005629;28;20211;-68
2021/10/09 04:02:38;;;;;;;31.30;21.97;;;8.90;99.90;;;9.98;73.47;94719.38;5019680;28;20221;-68
2021/10/09 04:05:07;;;;;;;33.10;22.37;;;9.30;99.90;;;10.00;73.41;94728.72;4999428;28;20234;-69
2021/10/09 04:07:36;;;;;;;34.23;22.70;;;9.20;99.90;;;9.98;73.65;94714.91;5031908;28;20221;-68
2021/10/09 04:10:06;;;;;;;33.60;23.27;;;8.90;99.90;;;9.99;73.65;94724.47;5045688;28;20214;-69
2021/10/09 04:12:32;;;;;;;34.53;23.63;;;9.10;99.90;;;10.02;73.38;94721.31;5012373;28;20221;-69
2021/10/09 04:14:59;;;;;;;33.53;24.10;;;8.40;99.90;;;10.03;73.78;94720.28;5013028;28;20264;-69
2021/10/09 04:17:25;;;;;;;33.77;22.73;;;8.90;99.90;;;9.99;73.87;94719.16;5042022;28;20227;-69
2021/10/09 04:19:53;;;;;;;32.40;22.67;;;9.30;99.90;;;10.02;73.73;94728.47;5027794;28;20221;-68
2021/10/09 04:22:19;;;;;;;31.13;22.23;;;9.10;99.90;;;9.97;73.60;94720.44;5011942;28;20229;-68
2021/10/09 04:24:45;;;;;;;35.47;24.30;;;9.10;99.90;;;10.02;73.81;94717.88;5029780;28;20633;-69
2021/10/09 04:27:13;;;;;;;33.13;24.23;;;9.40;99.90;;;10.05;73.57;94710.25;5009880;28;20232;-69
2021/10/09 04:29:39;;;;;;;32.20;22.20;;;9.20;99.90;;;10.04;73.66;94721.09;5021168;28;20214;-68
2021/10/09 04:32:07;;;;;;;35.17;23.47;;;9.60;99.90;;;10.07;73.55;94710.78;4994845;28;20331;-68
2021/10/09 04:34:33;;;;;;;30.17;22.00;;;9.20;99.90;;;10.06;73.89;94708.41;4995061;28;20662;-68
2021/10/09 04:36:59;;;;;;;32.23;22.27;;;9.50;99.90;;;10.08;74.03;94717.72;5043037;28;20310;-68
2021/10/09 04:39:25;;;;;;;28.83;21.53;;;9.50;99.90;;;10.13;73.70;94723.09;5010021;28;20661;-68
2021/10/09 04:41:56;;;;;;;32.90;23.03;;;9.40;99.90;;;10.04;73.83;94731.69;5011545;28;20641;-68
2021/10/09 04:44:22;;;;;;;33.33;21.77;;;8.90;99.90;;;10.02;73.92;94723.16;5011173;28;20659;-68
2021/10/09 04:46:49;;;;;;;34.10;21.90;;;9.20;99.90;;;10.02;73.81;94720.53;5029125;28;20261;-68
2021/10/09 04:49:15;;;;;;;31.20;22.90;;;9.20;99.90;;;9.97;73.96;94720.44;5016561;28;20211;-67
2021/10/09 04:51:41;;;;;;;32.17;22.93;;;9.00;99.90;;;9.94;73.99;94727.00;5012505;28;20221;-68
2021/10/09 04:54:06;;;;;;;30.93;21.20;;;8.20;99.90;;;9.87;73.73;94715.75;4992186;28;20288;-68
2021/10/09 04:56:32;;;;;;;30.43;21.53;;;9.20;99.90;;;9.86;73.84;94724.78;5043212;28;20304;-68
2021/10/09 04:59:03;;;;;;;29.00;20.50;;;8.20;99.90;;;9.85;74.34;94728.44;5043396;28;20217;-68
2021/10/09 05:01:29;;;;;;;34.60;21.87;;;8.50;99.90;;;9.82;73.99;94726.28;5013071;28;20309;-68
2021/10/09 05:03:55;;;;;;;33.20;22.40;;;;;;;9.84;73.88;94728.72;5000608;28;20244;-68
2021/10/09 05:06:21;;;;;;;30.83;21.53;;;9.10;99.90;;;9.83;74.08;94729.75;4993171;28;20235;-68
2021/10/09 05:08:49;;;;;;;32.47;20.83;;;8.10;99.90;;;9.79;73.91;94729.41;5030479;28;20218;-68
2021/10/09 05:11:20;;;;;;;29.60;21.10;;;9.50;99.90;;;9.85;73.94;94743.53;4999427;28;20270;-68
2021/10/09 05:13:48;;;;;;;29.23;20.50;;;8.50;99.90;;;9.76;74.12;94720.09;5006545;28;20873;-66
2021/10/09 05:16:15;;;;;;;29.43;21.23;;;;;;;9.72;74.12;94721.63;5011647;28;20218;-67
2021/10/09 05:18:41;;;;;;;34.53;21.83;;;9.00;99.90;;;9.70;74.17;94728.19;5010314;28;20304;-68
2021/10/09 05:21:11;;;;;;;32.93;22.47;;;9.30;99.90;;;9.68;74.13;94738.22;4999074;28;20280;-68
2021/10/09 05:23:38;;;;;;;32.27;22.53;;;9.10;99.90;;;9.64;74.15;94735.22;5007725;28;20570;-67
2021/10/09 05:26:07;;;;;;;31.20;21.77;;;8.70;99.90;;;9.65;74.38;94736.84;5014174;28;20599;-67
2021/10/09 05:28:45;;;;;;;31.70;21.50;;;9.30;99.90;;;9.69;74.32;94734.53;5026463;28;20799;-68
2021/10/09 05:31:22;;;;;;;30.60;21.13;;;8.80;99.90;;;9.67;74.14;94736.63;5024535;28;20270;-69
2021/10/09 05:33:48;;;;;;;34.53;22.53;;;9.00;99.90;;;9.68;74.21;94740.84;4996826;28;20658;-68
2021/10/09 05:36:17;;;;;;;30.93;21.50;;;8.40;99.90;;;9.59;74.36;94745.75;5039528;28;20221;-67
2021/10/09 05:38:42;;;;;;;30.20;21.03;;;7.50;99.90;;;9.57;74.22;94747.03;5013987;28;20554;-67
2021/10/09 05:41:08;;;;;;;30.47;20.60;;;9.30;99.90;;;9.61;74.24;94756.06;5027852;28;20266;-66
2021/10/09 05:43:34;;;;;;;28.97;21.57;;;8.50;99.90;;;9.58;74.18;94752.06;5026264;28;20685;-68
2021/10/09 05:46:02;;;;;;;29.50;21.03;;;;;;;9.63;74.29;94759.31;4993337;28;20339;-67
2021/10/09 05:48:28;;;;;;;29.20;20.50;;;8.90;99.90;;;9.60;74.69;94751.84;5011496;28;20558;-67
2021/10/09 05:53:47;;;;;;;28.73;20.40;;;8.00;99.90;;;9.67;74.72;94763.09;5041857;28;20604;-68
2021/10/09 07:01:45;;;;;;;25.50;18.80;;;9.00;99.90;;;9.87;74.87;94811.06;4913276;29;20277;-69
2021/10/09 07:04:11;;;;;;;25.53;19.17;;;8.40;99.90;;;9.84;74.42;94813.41;4913260;29;20245;-67
2021/10/09 07:06:41;;;;;;;26.37;19.50;;;9.80;99.90;;;9.91;74.68;94827.28;4916655;29;20363;-69
2021/10/09 07:09:07;;;;;;;26.87;19.87;;;8.90;99.90;;;10.01;74.76;94828.28;4938927;28;20307;-68
2021/10/09 07:11:35;;;;;;;24.20;18.40;;;8.90;99.90;;;10.03;74.77;94820.13;4929639;28;20326;-71
2021/10/09 07:14:00;;;;;;;24.50;18.27;;;9.10;99.90;;;10.08;74.92;94818.34;4922967;28;20919;-71
2021/10/09 07:16:26;;;;;;;24.87;19.43;;;9.40;99.90;;;10.17;75.00;94818.81;4929341;28;20226;-67
2021/10/09 07:18:52;;;;;;;23.80;17.90;;;9.90;99.90;;;10.16;74.72;94827.78;4946163;28;20223;-68
2021/10/09 07:21:21;;;;;;;25.20;17.53;;;9.50;99.90;;;10.16;74.86;94818.00;4931050;28;20271;-70
2021/10/09 07:23:47;;;;;;;25.97;18.90;;;9.50;99.90;;;10.18;74.94;94823.03;4948174;28;20280;-71
2021/10/09 07:26:13;;;;;;;24.37;18.23;;;;;;;10.25;74.76;94815.75;4930816;28;20243;-68
2021/10/09 07:28:39;;;;;;;23.67;18.00;;;;;;;10.39;74.68;94827.66;5019510;28;20230;-68
2021/10/09 07:31:08;;;;;;;24.77;17.07;;;9.80;99.90;;;10.39;75.05;94821.53;5008627;28;20229;-70
2021/10/09 07:33:34;;;;;;;21.70;17.50;;;;;;;10.46;74.97;94832.78;4972609;28;20222;-69
2021/10/09 07:36:00;;;;;;;24.83;17.77;;;9.40;99.90;;;10.40;74.78;94823.97;5039648;28;20217;-70
2021/10/09 07:38:29;;;;;;;24.17;17.53;;;9.60;99.90;;;10.42;74.83;94829.00;5008001;28;20567;-70
2021/10/09 07:40:55;;;;;;;23.43;17.63;;;8.60;99.90;;;10.45;75.07;94817.94;5016309;28;20224;-69
2021/10/09 07:43:21;;;;;;;23.73;16.87;;;9.00;99.90;;;10.50;74.93;94828.63;5011689;28;20222;-68
2021/10/09 07:45:48;;;;;;;22.10;16.90;;;9.10;99.90;;;10.49;74.97;94829.66;4994820;28;20230;-72
2021/10/09 07:48:16;;;;;;;20.63;16.17;;;9.60;99.90;;;10.56;75.10;94838.25;5008664;28;20570;-70
2021/10/09 07:50:42;;;;;;;23.83;17.33;;;9.80;99.90;;;10.53;75.22;94826.28;5011520;28;20289;-69
2021/10/09 07:53:09;;;;;;;22.77;17.37;;;;;;;10.50;74.99;94839.22;5014021;28;20217;-74
2021/10/09 07:55:37;;;;;;;22.80;17.30;;;9.20;99.90;;;10.51;74.94;94838.97;5011415;28;20218;-73
2021/10/09 07:58:03;;;;;;;26.27;17.10;;;10.30;99.90;;;10.53;74.88;94836.91;5011638;28;20258;-73
2021/10/09 08:00:29;;;;;;;21.30;16.93;;;9.40;99.90;;;10.56;74.89;94846.22;5009091;28;20715;-73
2021/10/09 08:02:54;;;;;;;20.43;16.27;;;9.60;99.90;;;10.61;75.04;94833.06;5025313;28;20214;-72
2021/10/09 08:05:23;;;;;;;24.70;17.07;;;8.80;99.90;;;10.54;75.00;94843.00;5013128;28;20337;-73
2021/10/09 08:07:54;;;;;;;24.20;16.17;;;9.60;99.90;;;10.54;75.01;94858.91;5010163;28;20216;-73
2021/10/09 08:10:20;;;;;;;20.63;15.93;;;;;;;10.64;75.04;94859.06;5010794;28;20305;-73
2021/10/09 08:12:46;;;;;;;22.13;16.37;;;9.50;99.90;;;10.66;74.50;94849.84;5025815;28;20227;-74
2021/10/09 08:15:16;;;;;;;22.20;16.43;;;9.90;99.90;;;10.58;74.76;94855.53;5027291;28;20257;-74
2021/10/09 08:17:42;;;;;;;22.40;16.33;;;9.50;99.90;;;10.68;74.99;94852.22;5042237;28;20213;-73
2021/10/09 08:20:12;;;;;;;20.87;16.00;;;10.10;99.90;;;10.71;75.11;94852.53;4994435;28;20539;-73
2021/10/09 08:22:43;;;;;;;22.90;16.87;;;;;;;10.72;74.70;94858.66;4994867;28;20663;-73
2021/10/09 08:41:34;;;;;;;20.43;15.40;;;9.80;99.90;;;10.89;74.85;94864.75;4987279;28;20244;-72
2021/10/09 08:43:59;;;;;;;17.43;14.27;;;10.00;99.90;;;10.91;74.73;94861.88;4953582;28;20621;-73
2021/10/09 08:46:26;;;;;;;18.23;14.13;;;;;;;10.88;74.97;94865.78;4973313;28;20251;-73
2021/10/09 08:48:53;;;;;;;18.77;14.63;;;10.40;99.90;;;10.89;74.70;94878.03;4972628;28;20269;-71
2021/10/09 08:51:28;;;;;;;19.60;14.63;;;10.00;99.90;;;10.98;74.66;94873.13;4984686;28;20263;-69
2021/10/09 08:54:10;;;;;;;18.33;14.67;;;10.10;99.90;;;11.07;75.00;94887.59;4973338;28;20262;-69
2021/10/09 08:56:45;;;;;;;18.33;13.53;;;9.80;99.90;;;11.19;74.90;94880.31;4958262;28;20566;-71
2021/10/09 08:59:22;;;;;;;19.87;14.83;;;10.40;99.90;;;11.18;74.92;94871.56;4963242;28;20310;-70
2021/10/09 09:40:52;;;;;;;15.93;13.13;;;11.10;99.90;;;11.82;74.85;94864.72;5018883;28;20557;-69
2021/10/09 09:43:17;;;;;;;16.60;13.33;;;11.00;99.90;;;11.94;74.51;94863.78;5009671;28;20235;-70
2021/10/09 09:45:44;;;;;;;16.07;12.63;;;;;;;11.92;74.82;94869.34;5040488;28;20231;-70
2021/10/09 09:48:10;;;;;;;16.03;13.67;;;11.30;99.90;;;11.86;74.69;94853.59;5023323;28;20673;-69
2021/10/09 09:50:36;;;;;;;16.07;13.03;;;10.80;99.90;;;11.86;74.58;94849.09;5005940;28;20229;-69
2021/10/09 09:53:06;;;;;;;16.37;12.93;;;11.40;99.90;;;11.92;74.51;94865.91;5023652;28;20231;-69
2021/10/09 09:55:34;;;;;;;16.33;12.53;;;11.20;99.90;;;12.10;74.47;94868.22;5039015;28;20221;-69
2021/10/09 09:58:01;;;;;;;15.43;12.77;;;11.20;99.90;;;12.27;74.51;94867.06;5043648;28;20227;-73
2021/10/09 10:00:32;;;;;;;15.37;13.03;;;11.40;99.90;;;12.26;74.45;94865.47;5009870;28;20216;-68
2021/10/09 10:03:00;;;;;;;15.53;12.97;;;10.60;99.90;;;12.15;74.21;94870.94;5020042;28;20228;-69
2021/10/09 10:05:28;;;;;;;16.27;12.90;;;11.40;99.90;;;12.10;74.17;94857.59;5040814;28;20226;-69
2021/10/09 10:07:57;;;;;;;15.10;13.10;;;11.30;99.90;;;12.15;74.21;94876.25;5037740;28;20298;-69
2021/10/09 10:10:26;;;;;;;17.13;12.40;;;11.10;99.90;;;12.25;74.10;94863.88;5006367;28;20253;-69
2021/10/09 10:12:56;;;;;;;17.60;12.60;;;11.50;99.90;;;12.23;74.16;94860.66;5016703;28;20216;-69
2021/10/09 10:15:28;;;;;;;16.47;12.80;;;11.50;99.90;;;12.44;74.38;94876.81;5005869;28;20231;-71
2021/10/09 10:17:54;;;;;;;16.37;12.90;;;11.50;99.90;;;12.57;74.37;94861.25;5001088;28;20228;-73
2021/10/09 10:20:42;;;;;;;14.90;12.77;;;11.70;99.90;;;12.54;74.01;94872.38;5023934;28;20223;-69
2021/10/09 10:23:08;;;;;;;15.37;12.40;;;12.00;99.90;;;12.66;74.08;94858.91;5011330;28;20217;-70
2021/10/09 10:25:35;;;;;;;16.53;12.70;;;11.80;99.90;;;12.81;74.51;94880.31;5008144;28;20236;-70
2021/10/09 10:28:05;;;;;;;14.33;11.80;;;12.10;99.90;;;12.84;73.91;94891.25;5006900;28;20213;-70
2021/10/09 10:30:45;;;;;;;14.10;12.30;;;12.50;99.90;;;12.92;74.28;94884.69;5009075;28;20251;-71
2021/10/09 10:33:11;;;;;;;14.10;12.03;;;11.90;99.90;;;12.70;73.84;94852.84;5007822;28;20662;-69
2021/10/09 10:35:36;;;;;;;15.20;12.07;;;11.70;99.90;;;12.55;74.18;94846.59;5006586;28;20222;-73
2021/10/09 10:38:23;;;;;;;14.50;12.57;;;12.00;99.90;;;12.51;74.22;94869.44;5007046;28;20712;-72
2021/10/09 10:41:01;;;;;;;15.53;13.07;;;12.00;99.90;;;12.63;73.37;94875.38;5023807;28;20218;-71
2021/10/09 10:47:01;;;;;;;16.97;12.37;;;11.80;99.90;;;12.79;73.78;94883.22;5020383;28;20774;-70
2021/10/09 10:51:56;;;;;;;15.17;12.53;;;12.20;99.90;;;12.76;73.71;94864.31;5012069;28;20210;-72
2021/10/09 10:57:01;;;;;;;14.17;11.43;;;11.60;99.90;;;12.80;73.69;94884.03;5011659;28;20275;-72
2021/10/09 11:02:17;;;;;;;14.97;11.63;;;11.90;99.90;;;12.84;73.53;94885.94;5005042;28;20231;-72
2021/10/09 11:04:49;;;;;;;14.23;11.67;;;12.30;99.90;;;12.83;73.21;94889.66;5024317;28;20222;-71
2021/10/09 11:07:19;;;;;;;18.53;13.13;;;11.80;99.90;;;12.58;73.76;94873.50;5008689;28;20712;-71
2021/10/09 11:09:46;;;;;;;14.97;12.47;;;11.80;99.90;;;12.70;73.71;94881.28;4989824;28;20307;-71
2021/10/09 11:12:27;;;;;;;15.80;11.60;;;12.00;99.90;;;12.88;73.70;94888.09;5022886;28;20228;-70
2021/10/09 11:15:15;;;;;;;13.57;12.17;;;11.70;99.90;;;12.57;73.63;94900.31;5008211;28;20232;-69
2021/10/09 11:17:43;;;;;;;24.90;11.57;;;12.70;99.90;;;12.76;73.41;94889.06;5043194;28;20835;-69
2021/10/09 11:20:13;;;;;;;15.33;12.03;;;11.90;99.90;;;12.62;73.18;94876.44;5041593;28;20727;-71
2021/10/09 11:22:44;;;;;;;13.17;10.73;;;11.90;99.90;;;12.63;73.33;94897.44;5011162;28;20215;-71
2021/10/09 11:25:25;;;;;;;15.90;12.53;;;11.90;99.90;;;12.58;73.47;94886.78;5024703;28;20576;-72
2021/10/09 11:27:51;;;;;;;13.50;12.10;;;12.00;99.90;;;12.60;73.11;94873.22;5027832;28;20308;-71
2021/10/09 11:30:17;;;;;;;15.10;12.03;;;11.70;99.90;;;12.58;72.92;94878.00;5009985;28;20223;-71
2021/10/09 11:32:44;;;;;;;14.90;11.30;;;11.60;99.90;;;12.61;72.93;94886.28;5024825;28;20228;-70
2021/10/09 11:35:14;;;;;;;14.07;10.67;;;11.90;99.90;;;12.74;73.14;94887.72;5007729;28;20857;-69
2021/10/09 11:37:53;;;;;;;15.40;12.27;;;12.10;99.90;;;12.98;73.07;94904.94;5043440;28;20639;-70
2021/10/09 11:40:49;;;;;;;12.73;11.10;;;11.80;99.90;;;12.86;73.12;94901.63;5011335;28;20228;-70
2021/10/09 11:54:04;;;;;;;12.83;10.87;;;11.80;99.90;;;12.84;72.82;94911.75;5013131;28;20247;-70
2021/10/09 11:56:43;;;;;;;12.10;10.77;;;12.20;99.90;;;12.98;72.75;94914.78;5034779;28;20700;-69
2021/10/09 11:59:10;;;;;;;12.43;10.57;;;11.80;99.90;;;12.91;73.00;94884.91;5008942;28;20709;-70
2021/10/09 12:01:43;;;;;;;11.47;9.80;;;12.00;99.90;;;12.85;73.13;94897.41;5011279;28;20976;-69
2021/10/09 12:04:21;;;;;;;13.13;10.40;;;12.10;99.90;;;13.00;72.87;94902.81;5009767;28;20232;-71
2021/10/09 12:07:00;;;;;;;12.13;10.13;;;12.40;99.90;;;13.05;72.99;94894.91;5039520;28;20232;-70
2021/10/09 12:09:43;;;;;;;13.70;10.33;;;11.60;99.90;;;12.98;73.24;94891.63;5011838;28;20234;-71
2021/10/09 12:12:23;;;;;;;11.90;10.10;;;12.30;99.90;;;12.94;72.80;94901.19;5007165;28;20209;-69
2021/10/09 12:14:53;;;;;;;13.17;10.03;;;13.10;99.90;;;13.13;72.45;94910.41;5045947;28;20328;-69
2021/10/09 12:17:22;;;;;;;14.47;11.07;;;12.30;99.90;;;13.31;73.03;94899.34;5027686;28;21060;-71
2021/10/09 12:20:07;;;;;;;12.27;10.60;;;12.30;99.90;;;12.97;72.77;94889.22;5028064;28;20217;-71
2021/10/09 12:22:44;;;;;;;12.93;10.40;;;12.00;99.90;;;12.98;72.37;94912.13;5008963;28;20207;-72
2021/10/09 12:25:26;;;;;;;11.00;9.77;;;12.90;99.90;;;13.04;72.90;94901.25;5011669;28;20262;-72
2021/10/09 12:28:03;;;;;;;12.43;9.97;;;11.70;99.90;;;13.10;72.28;94916.25;5039227;28;20209;-72
2021/10/09 12:30:44;;;;;;;14.33;10.07;;;12.70;99.90;;;13.03;72.59;94909.47;5011388;28;20216;-73
2021/10/09 12:33:12;;;;;;;12.87;10.40;;;12.20;99.90;;;12.74;72.39;94901.81;5005138;28;20209;-72
2021/10/09 12:35:38;;;;;;;11.60;9.93;;;12.80;99.90;;;12.71;72.37;94907.66;5013911;28;20300;-71
2021/10/09 12:38:09;;;;;;;11.10;9.73;;;12.00;99.90;;;13.05;72.11;94916.19;5041312;28;20635;-71
2021/10/09 12:40:46;;;;;;;11.77;10.10;;;13.10;99.90;;;13.08;72.27;94901.56;5042287;28;20233;-71
2021/10/09 12:43:17;;;;;;;12.03;9.37;;;11.60;99.90;;;13.04;72.04;94905.78;5025976;28;20220;-72
2021/10/09 12:45:46;;;;;;;11.97;9.83;;;13.10;99.90;;;13.02;72.61;94907.91;5025110;28;20222;-71
2021/10/09 12:48:13;;;;;;;10.50;9.27;;;;;;;13.15;72.05;94915.47;5007343;28;20221;-71
2021/10/09 12:50:42;;;;;;;12.90;10.23;;;12.50;99.90;;;13.51;72.02;94919.19;5008783;28;20209;-74
2021/10/09 12:53:10;;;;;;;10.20;8.87;;;13.20;99.90;;;13.76;72.16;94909.50;5039181;28;20697;-72
2021/10/09 12:55:37;;;;;;;10.83;9.30;;;12.80;99.90;;;13.83;72.17;94895.94;5020449;28;20749;-71
2021/10/09 12:58:06;;;;;;;10.37;9.27;;;13.90;99.90;;;13.72;72.07;94907.59;5008476;28;20224;-73
2021/10/09 13:00:33;;;;;;;10.37;8.70;;;13.60;99.90;;;13.83;71.91;94912.69;5023488;28;20278;-72
2021/10/09 13:03:00;;;;;;;10.03;9.03;;;13.60;99.90;;;14.16;71.89;94906.19;5041801;28;20224;-72
2021/10/09 13:05:30;;;;;;;9.83;8.83;;;13.40;99.90;;;14.32;71.87;94918.50;5008235;28;20687;-72
2021/10/09 13:07:58;;;;;;;11.97;9.33;;;14.20;99.90;;;14.42;71.97;94922.28;5025731;28;20220;-73